sensor_id;sensor_type;location;lat;lon;timestamp;temperature;humidity
74220;DHT22;62580;54.416;11.120;2022-12-18T00:09:02;17.70;36.20
74220;DHT22;62580;54.416;11.120;2022-12-18T00:19:05;17.70;36.30
74220;DHT22;62580;54.416;11.120;2022-12-18T00:29:07;17.80;36.30
74220;DHT22;62580;54.416;11.120;2022-12-18T00:39:10;17.70;36.20
74220;DHT22;62580;54.416;11.120;2022-12-18T00:49:11;17.80;36.20
74220;DHT22;62580;54.416;11.120;2022-12-18T00:59:13;17.70;36.20
74220;DHT22;62580;54.416;11.120;2022-12-18T01:09:14;17.70;36.20
74220;DHT22;62580;54.416;11.120;2022-12-18T01:19:16;17.70;36.20
74220;DHT22;62580;54.416;11.120;2022-12-18T01:29:17;17.70;36.10
74220;DHT22;62580;54.416;11.120;2022-12-18T01:39:19;17.70;36.10
74220;DHT22;62580;54.416;11.120;2022-12-18T01:49:20;17.80;36.20
74220;DHT22;62580;54.416;11.120;2022-12-18T01:59:22;17.70;36.20
74220;DHT22;62580;54.416;11.120;2022-12-18T02:09:25;17.70;36.10
74220;DHT22;62580;54.416;11.120;2022-12-18T02:19:45;17.70;36.20
74220;DHT22;62580;54.416;11.120;2022-12-18T02:29:51;17.70;36.00
74220;DHT22;62580;54.416;11.120;2022-12-18T02:39:53;17.70;36.10
74220;DHT22;62580;54.416;11.120;2022-12-18T02:50:02;17.70;36.10
74220;DHT22;62580;54.416;11.120;2022-12-18T03:00:08;17.70;36.00
74220;DHT22;62580;54.416;11.120;2022-12-18T03:10:16;17.70;36.10
74220;DHT22;62580;54.416;11.120;2022-12-18T03:20:20;17.70;36.00
74220;DHT22;62580;54.416;11.120;2022-12-18T03:30:23;17.70;36.10
74220;DHT22;62580;54.416;11.120;2022-12-18T03:40:29;17.70;36.10
74220;DHT22;62580;54.416;11.120;2022-12-18T03:50:42;17.70;36.00
74220;DHT22;62580;54.416;11.120;2022-12-18T04:00:45;17.80;36.10
74220;DHT22;62580;54.416;11.120;2022-12-18T04:10:49;17.70;36.00
74220;DHT22;62580;54.416;11.120;2022-12-18T04:20:50;17.80;36.10
74220;DHT22;62580;54.416;11.120;2022-12-18T04:30:52;17.70;36.10
74220;DHT22;62580;54.416;11.120;2022-12-18T04:40:53;17.70;36.00
74220;DHT22;62580;54.416;11.120;2022-12-18T04:50:55;17.70;36.00
74220;DHT22;62580;54.416;11.120;2022-12-18T05:00:55;17.70;36.00
74220;DHT22;62580;54.416;11.120;2022-12-18T05:11:02;17.80;36.10
74220;DHT22;62580;54.416;11.120;2022-12-18T05:21:03;17.80;36.00
74220;DHT22;62580;54.416;11.120;2022-12-18T05:31:05;17.70;36.00
74220;DHT22;62580;54.416;11.120;2022-12-18T05:41:07;17.70;36.00
74220;DHT22;62580;54.416;11.120;2022-12-18T05:51:11;17.70;36.00
74220;DHT22;62580;54.416;11.120;2022-12-18T06:01:13;17.70;36.00
74220;DHT22;62580;54.416;11.120;2022-12-18T06:11:16;17.80;35.90
74220;DHT22;62580;54.416;11.120;2022-12-18T06:21:17;17.80;35.90
74220;DHT22;62580;54.416;11.120;2022-12-18T06:31:19;17.80;35.90
74220;DHT22;62580;54.416;11.120;2022-12-18T06:41:21;17.80;36.00
74220;DHT22;62580;54.416;11.120;2022-12-18T06:51:23;17.70;35.90
74220;DHT22;62580;54.416;11.120;2022-12-18T07:01:24;17.70;35.90
74220;DHT22;62580;54.416;11.120;2022-12-18T07:11:26;17.70;35.90
74220;DHT22;62580;54.416;11.120;2022-12-18T07:21:27;17.60;35.90
74220;DHT22;62580;54.416;11.120;2022-12-18T07:31:29;17.70;36.00
74220;DHT22;62580;54.416;11.120;2022-12-18T07:41:29;17.70;35.90
74220;DHT22;62580;54.416;11.120;2022-12-18T07:51:31;17.70;35.80
74220;DHT22;62580;54.416;11.120;2022-12-18T08:01:33;17.70;35.80
74220;DHT22;62580;54.416;11.120;2022-12-18T08:11:35;17.70;35.80
74220;DHT22;62580;54.416;11.120;2022-12-18T08:21:35;17.70;35.80
74220;DHT22;62580;54.416;11.120;2022-12-18T08:31:37;17.70;35.80
74220;DHT22;62580;54.416;11.120;2022-12-18T08:41:38;17.70;35.60
74220;DHT22;62580;54.416;11.120;2022-12-18T08:51:40;17.70;35.60
74220;DHT22;62580;54.416;11.120;2022-12-18T09:01:40;17.70;35.50
74220;DHT22;62580;54.416;11.120;2022-12-18T09:11:42;17.70;35.50
74220;DHT22;62580;54.416;11.120;2022-12-18T09:21:43;17.70;35.50
74220;DHT22;62580;54.416;11.120;2022-12-18T09:31:45;17.70;35.50
74220;DHT22;62580;54.416;11.120;2022-12-18T09:41:50;17.60;35.40
74220;DHT22;62580;54.416;11.120;2022-12-18T09:51:55;17.70;35.40
74220;DHT22;62580;54.416;11.120;2022-12-18T10:01:57;17.70;35.40
74220;DHT22;62580;54.416;11.120;2022-12-18T10:12:06;17.70;35.40
74220;DHT22;62580;54.416;11.120;2022-12-18T10:22:21;17.70;35.50
74220;DHT22;62580;54.416;11.120;2022-12-18T10:32:26;17.70;35.50
74220;DHT22;62580;54.416;11.120;2022-12-18T10:42:27;17.70;35.60
74220;DHT22;62580;54.416;11.120;2022-12-18T10:52:29;17.70;35.60
74220;DHT22;62580;54.416;11.120;2022-12-18T11:02:34;17.70;35.60
74220;DHT22;62580;54.416;11.120;2022-12-18T11:12:36;17.80;35.70
74220;DHT22;62580;54.416;11.120;2022-12-18T11:22:37;17.70;35.60
74220;DHT22;62580;54.416;11.120;2022-12-18T11:32:41;17.70;35.70
74220;DHT22;62580;54.416;11.120;2022-12-18T11:42:48;17.70;35.70
74220;DHT22;62580;54.416;11.120;2022-12-18T11:52:51;17.70;35.70
74220;DHT22;62580;54.416;11.120;2022-12-18T12:03:17;17.70;35.70
74220;DHT22;62580;54.416;11.120;2022-12-18T12:13:38;17.70;35.80
74220;DHT22;62580;54.416;11.120;2022-12-18T12:23:44;17.70;35.80
74220;DHT22;62580;54.416;11.120;2022-12-18T12:33:55;17.70;35.80
74220;DHT22;62580;54.416;11.120;2022-12-18T12:43:59;17.70;35.80
74220;DHT22;62580;54.416;11.120;2022-12-18T12:54:05;17.70;35.80
74220;DHT22;62580;54.416;11.120;2022-12-18T13:04:15;17.70;35.80
74220;DHT22;62580;54.416;11.120;2022-12-18T13:14:26;17.70;36.10
74220;DHT22;62580;54.416;11.120;2022-12-18T13:24:30;17.70;35.80
74220;DHT22;62580;54.416;11.120;2022-12-18T13:34:32;17.70;35.80
74220;DHT22;62580;54.416;11.120;2022-12-18T13:44:35;17.70;35.90
74220;DHT22;62580;54.416;11.120;2022-12-18T13:54:39;17.70;35.90
74220;DHT22;62580;54.416;11.120;2022-12-18T14:04:40;17.70;35.90
74220;DHT22;62580;54.416;11.120;2022-12-18T14:14:44;17.70;35.90
74220;DHT22;62580;54.416;11.120;2022-12-18T14:24:47;17.70;35.90
74220;DHT22;62580;54.416;11.120;2022-12-18T14:34:50;17.70;36.00
74220;DHT22;62580;54.416;11.120;2022-12-18T14:55:33;17.70;36.00
74220;DHT22;62580;54.416;11.120;2022-12-18T15:05:34;17.70;36.00
74220;DHT22;62580;54.416;11.120;2022-12-18T15:15:47;17.70;35.90
74220;DHT22;62580;54.416;11.120;2022-12-18T15:25:54;17.70;35.90
74220;DHT22;62580;54.416;11.120;2022-12-18T15:36:00;17.70;36.00
74220;DHT22;62580;54.416;11.120;2022-12-18T15:46:05;17.70;36.00
74220;DHT22;62580;54.416;11.120;2022-12-18T15:56:09;17.70;36.00
74220;DHT22;62580;54.416;11.120;2022-12-18T16:06:10;17.70;35.90
74220;DHT22;62580;54.416;11.120;2022-12-18T16:16:12;17.70;35.90
74220;DHT22;62580;54.416;11.120;2022-12-18T16:26:13;17.70;36.00
74220;DHT22;62580;54.416;11.120;2022-12-18T16:36:15;17.70;36.00
74220;DHT22;62580;54.416;11.120;2022-12-18T16:46:15;17.60;36.00
74220;DHT22;62580;54.416;11.120;2022-12-18T16:56:17;17.70;36.00
74220;DHT22;62580;54.416;11.120;2022-12-18T17:06:18;17.70;36.00
74220;DHT22;62580;54.416;11.120;2022-12-18T17:16:21;17.70;35.80
74220;DHT22;62580;54.416;11.120;2022-12-18T17:26:21;17.70;35.80
74220;DHT22;62580;54.416;11.120;2022-12-18T17:36:24;17.70;35.90
74220;DHT22;62580;54.416;11.120;2022-12-18T17:46:26;17.60;36.00
74220;DHT22;62580;54.416;11.120;2022-12-18T17:56:28;17.60;36.00
74220;DHT22;62580;54.416;11.120;2022-12-18T18:06:29;17.70;35.90
74220;DHT22;62580;54.416;11.120;2022-12-18T18:16:34;17.70;35.80
74220;DHT22;62580;54.416;11.120;2022-12-18T18:26:36;17.70;35.90
74220;DHT22;62580;54.416;11.120;2022-12-18T18:36:38;17.60;35.90
74220;DHT22;62580;54.416;11.120;2022-12-18T18:46:38;17.60;36.00
74220;DHT22;62580;54.416;11.120;2022-12-18T18:56:40;17.60;35.90
74220;DHT22;62580;54.416;11.120;2022-12-18T19:06:41;17.70;35.90
74220;DHT22;62580;54.416;11.120;2022-12-18T19:16:43;17.70;35.80
74220;DHT22;62580;54.416;11.120;2022-12-18T19:26:44;17.70;35.80
74220;DHT22;62580;54.416;11.120;2022-12-18T19:36:46;17.60;35.90
74220;DHT22;62580;54.416;11.120;2022-12-18T19:46:49;17.70;36.00
74220;DHT22;62580;54.416;11.120;2022-12-18T19:56:52;17.70;35.80
74220;DHT22;62580;54.416;11.120;2022-12-18T20:06:52;17.70;35.70
74220;DHT22;62580;54.416;11.120;2022-12-18T20:16:55;17.70;35.70
74220;DHT22;62580;54.416;11.120;2022-12-18T20:26:55;17.70;35.80
74220;DHT22;62580;54.416;11.120;2022-12-18T20:36:57;17.70;35.90
74220;DHT22;62580;54.416;11.120;2022-12-18T20:46:58;17.70;35.80
74220;DHT22;62580;54.416;11.120;2022-12-18T20:57:00;17.70;35.80
74220;DHT22;62580;54.416;11.120;2022-12-18T21:07:01;17.60;35.70
74220;DHT22;62580;54.416;11.120;2022-12-18T21:17:03;17.60;36.30
74220;DHT22;62580;54.416;11.120;2022-12-18T21:27:03;17.70;35.80
74220;DHT22;62580;54.416;11.120;2022-12-18T21:37:06;17.70;35.70
74220;DHT22;62580;54.416;11.120;2022-12-18T21:47:07;17.70;35.80
74220;DHT22;62580;54.416;11.120;2022-12-18T21:57:09;17.60;35.60
74220;DHT22;62580;54.416;11.120;2022-12-18T22:07:10;17.70;35.60
74220;DHT22;62580;54.416;11.120;2022-12-18T22:17:12;17.70;35.70
74220;DHT22;62580;54.416;11.120;2022-12-18T22:27:13;17.70;35.70
74220;DHT22;62580;54.416;11.120;2022-12-18T22:37:15;17.60;35.60
74220;DHT22;62580;54.416;11.120;2022-12-18T22:47:15;17.60;35.60
74220;DHT22;62580;54.416;11.120;2022-12-18T22:57:17;17.60;35.50
74220;DHT22;62580;54.416;11.120;2022-12-18T23:07:18;17.70;35.60
74220;DHT22;62580;54.416;11.120;2022-12-18T23:17:20;17.70;35.50
74220;DHT22;62580;54.416;11.120;2022-12-18T23:27:21;17.70;35.60
74220;DHT22;62580;54.416;11.120;2022-12-18T23:37:23;17.60;35.60
74220;DHT22;62580;54.416;11.120;2022-12-18T23:47:23;17.60;35.60
74220;DHT22;62580;54.416;11.120;2022-12-18T23:57:25;17.60;35.70
